createdAt,value
2018-07-10T00:03:24.954Z,94563.23
2018-07-10T00:06:16.625Z,94560.88
2018-07-10T00:09:32.211Z,94556.63
2018-07-10T00:12:01.960Z,94551.08
2018-07-10T00:14:31.633Z,94544.52
2018-07-10T00:17:01.284Z,94546.12
2018-07-10T00:19:31.246Z,94539.80
2018-07-10T00:22:01.122Z,94540.33
2018-07-10T00:24:31.020Z,94536.64
2018-07-10T00:27:01.035Z,94530.08
2018-07-10T00:29:30.650Z,94529.78
2018-07-10T00:32:00.751Z,94527.95
2018-07-10T00:34:30.854Z,94530.34
2018-07-10T00:37:00.871Z,94520.32
2018-07-10T00:39:30.636Z,94517.20
2018-07-10T00:42:00.510Z,94521.66
2018-07-10T00:44:30.214Z,94519.83
2018-07-10T00:46:59.878Z,94518.56
2018-07-10T00:49:29.966Z,94509.08
2018-07-10T00:52:00.052Z,94516.20
2018-07-10T00:54:30.149Z,94508.26
2018-07-10T00:57:00.155Z,94504.55
2018-07-10T00:59:30.232Z,94510.63
2018-07-10T01:02:00.220Z,94503.73
2018-07-10T01:04:29.873Z,94501.89
2018-07-10T01:06:59.807Z,94502.67
2018-07-10T01:09:29.731Z,94502.91
2018-07-10T01:11:59.534Z,94502.94
2018-07-10T01:14:29.163Z,94494.95
2018-07-10T01:16:58.986Z,94502.50
2018-07-10T01:19:28.770Z,94506.29
2018-07-10T01:21:58.534Z,94508.16
2018-07-10T01:24:28.548Z,94508.63
2018-07-10T01:26:58.367Z,94503.36
2018-07-10T01:29:33.285Z,94502.61
2018-07-10T01:32:03.276Z,94501.56
2018-07-10T01:34:33.326Z,94506.52
2018-07-10T01:37:03.739Z,94512.83
2018-07-10T01:39:33.637Z,94513.45
2018-07-10T01:42:03.497Z,94518.69
2018-07-10T01:44:33.215Z,94519.66
2018-07-10T01:47:03.027Z,94518.46
2018-07-10T01:49:32.923Z,94517.23
2018-07-10T01:52:02.972Z,94337.36
2018-07-10T01:54:32.674Z,94517.30
2018-07-10T01:57:02.842Z,94525.22
2018-07-10T01:59:32.753Z,94526.66
2018-07-10T02:02:02.504Z,94529.67
2018-07-10T02:04:32.520Z,94522.86
2018-07-10T02:07:02.410Z,94515.77
2018-07-10T02:09:32.319Z,94509.25
2018-07-10T02:12:02.072Z,94514.73
2018-07-10T02:14:31.869Z,94522.38
2018-07-10T02:17:01.649Z,94516.34
2018-07-10T02:19:31.680Z,94511.11
2018-07-10T02:22:01.638Z,94514.59
2018-07-10T02:24:31.504Z,94512.22
2018-07-10T02:27:01.627Z,94508.54
2018-07-10T02:29:31.626Z,94510.89
2018-07-10T02:32:01.451Z,94514.27
2018-07-10T02:34:31.416Z,94509.05
2018-07-10T02:37:03.209Z,94505.40
2018-07-10T02:39:33.150Z,94503.85
2018-07-10T02:42:03.235Z,94505.95
2018-07-10T02:44:32.851Z,94508.01
2018-07-10T02:47:03.324Z,94510.14
2018-07-10T02:49:32.990Z,94509.88
2018-07-10T02:52:05.072Z,94510.15
2018-07-10T02:54:36.859Z,94512.53
2018-07-10T02:57:08.636Z,94511.47
2018-07-10T02:59:42.007Z,94502.80
2018-07-10T03:02:20.686Z,94510.17
2018-07-10T03:05:00.972Z,94513.81
2018-07-10T03:07:32.356Z,94518.80
2018-07-10T03:10:02.617Z,94516.45
2018-07-10T03:12:35.023Z,94518.05
2018-07-10T03:15:08.148Z,94515.16
2018-07-10T03:17:38.315Z,94519.60
2018-07-10T03:20:09.139Z,94524.85
2018-07-10T03:22:39.058Z,94523.25
2018-07-10T03:25:09.619Z,94521.41
2018-07-10T03:27:39.782Z,94515.06
2018-07-10T03:30:09.510Z,94512.64
2018-07-10T03:32:39.545Z,94529.39
2018-07-10T03:35:09.283Z,94528.84
2018-07-10T03:37:39.137Z,94529.81
2018-07-10T03:40:08.854Z,94523.51
2018-07-10T03:42:38.671Z,94523.77
2018-07-10T03:45:08.394Z,94525.58
2018-07-10T03:47:38.262Z,94524.76
2018-07-10T03:50:08.150Z,94518.71
2018-07-10T03:52:38.223Z,94522.33
2018-07-10T03:55:11.054Z,94518.02
2018-07-10T03:57:41.065Z,94521.69
2018-07-10T04:00:13.052Z,94521.92
2018-07-10T04:02:44.343Z,94526.28
2018-07-10T04:05:14.474Z,94527.63
2018-07-10T04:07:45.258Z,94523.94
2018-07-10T04:10:18.442Z,94530.66
2018-07-10T04:12:50.294Z,94527.81
2018-07-10T04:15:20.476Z,94534.08
2018-07-10T04:18:04.365Z,94530.92
2018-07-10T04:21:46.747Z,94542.90
2018-07-10T04:24:19.558Z,94537.64
2018-07-10T04:26:58.037Z,94539.38
2018-07-10T04:29:48.718Z,94535.62
2018-07-10T04:32:18.879Z,94541.23
2018-07-10T04:34:49.979Z,94545.33
2018-07-10T04:37:19.909Z,94544.52
2018-07-10T04:39:49.680Z,94545.16
2018-07-10T04:42:23.835Z,94553.32
2018-07-10T04:45:08.655Z,94550.91
2018-07-10T04:47:44.502Z,94547.48
2018-07-10T04:50:22.619Z,94552.89
2018-07-10T04:53:01.503Z,94558.98
2018-07-10T04:55:32.594Z,94560.16
2018-07-10T04:58:05.955Z,94563.85
2018-07-10T05:00:39.024Z,94562.33
2018-07-10T05:03:08.926Z,94562.39
2018-07-10T05:05:38.895Z,94568.18
2018-07-10T05:08:08.635Z,94564.96
2018-07-10T05:10:38.247Z,94568.47
2018-07-10T05:13:08.249Z,94568.91
2018-07-10T05:15:40.145Z,94571.12
2018-07-10T05:18:11.418Z,94574.03
2018-07-10T05:20:45.163Z,94574.70
2018-07-10T05:23:16.579Z,94581.25
2018-07-10T05:25:55.130Z,94579.31
2018-07-10T05:28:27.054Z,94584.28
2018-07-10T05:30:59.916Z,94587.18
2018-07-10T05:33:30.476Z,94585.86
2018-07-10T05:36:01.731Z,94586.49
2018-07-10T05:38:40.989Z,94582.63
2018-07-10T05:41:13.890Z,94582.09
2018-07-10T05:43:49.855Z,94324.88
2018-07-10T05:46:22.318Z,94585.84
2018-07-10T05:49:07.998Z,94583.69
2018-07-10T05:51:49.775Z,94585.55
2018-07-10T05:54:19.571Z,94578.64
2018-07-10T05:56:50.318Z,94583.18
2018-07-10T05:59:20.116Z,94584.02
2018-07-10T06:01:49.908Z,94584.17
2018-07-10T06:04:19.883Z,94581.78
2018-07-10T06:06:49.801Z,94584.27
2018-07-10T06:09:19.600Z,94589.18
2018-07-10T06:11:49.249Z,94580.45
2018-07-10T06:14:19.207Z,94581.82
2018-07-10T06:16:51.335Z,94587.50
2018-07-10T06:19:21.382Z,94588.98
2018-07-10T06:21:51.826Z,94583.19
2018-07-10T06:24:26.716Z,94581.16
2018-07-10T06:27:07.376Z,94588.63
2018-07-10T06:29:50.470Z,94580.96
2018-07-10T06:32:22.103Z,94578.97
2018-07-10T06:34:57.381Z,94580.65
2018-07-10T06:37:34.430Z,94579.38
2018-07-10T06:40:06.522Z,94584.73
2018-07-10T06:42:51.611Z,94582.59
2018-07-10T06:45:21.470Z,94582.97
2018-07-10T06:47:51.492Z,94583.70
2018-07-10T06:50:22.482Z,94584.43
2018-07-10T06:52:53.694Z,94592.78
2018-07-10T06:55:23.696Z,94592.87
2018-07-10T06:57:55.004Z,94589.70
2018-07-10T07:00:25.262Z,94586.53
2018-07-10T07:02:55.190Z,94584.02
2018-07-10T07:05:25.168Z,94587.66
2018-07-10T07:07:54.886Z,94580.34
2018-07-10T07:10:25.861Z,94579.70
2018-07-10T07:12:55.894Z,94583.31
2018-07-10T07:15:25.759Z,94582.47
2018-07-10T07:17:55.628Z,94580.16
2018-07-10T07:20:25.445Z,94575.62
2018-07-10T07:22:55.302Z,94576.70
2018-07-10T07:25:25.060Z,94575.14
2018-07-10T07:27:54.862Z,94579.77
2018-07-10T07:30:24.717Z,94584.74
2018-07-10T07:32:54.441Z,94581.84
2018-07-10T07:35:24.074Z,94575.88
2018-07-10T07:37:53.630Z,94572.00
2018-07-10T07:40:23.435Z,94576.36
2018-07-10T07:42:53.071Z,94579.88
2018-07-10T07:45:22.871Z,94576.02
2018-07-10T07:47:53.274Z,94567.00
2018-07-10T07:50:23.192Z,94566.37
2018-07-10T07:52:53.112Z,94568.97
2018-07-10T07:55:23.175Z,94573.24
2018-07-10T07:57:52.950Z,94574.89
2018-07-10T08:00:22.813Z,94580.64
2018-07-10T08:02:53.033Z,94581.46
2018-07-10T08:05:22.842Z,94566.36
2018-07-10T08:07:52.609Z,94574.03
2018-07-10T08:10:22.490Z,94572.17
2018-07-10T08:12:52.400Z,94571.26
2018-07-10T08:15:22.503Z,94578.70
2018-07-10T08:17:52.483Z,94586.56
2018-07-10T08:20:22.539Z,94583.58
2018-07-10T08:22:52.558Z,94579.27
2018-07-10T08:25:24.687Z,94580.45
2018-07-10T08:27:55.043Z,94578.95
2018-07-10T08:30:25.244Z,94578.41
2018-07-10T08:32:55.258Z,94570.42
2018-07-10T08:35:25.078Z,94573.61
2018-07-10T08:37:54.850Z,94572.38
2018-07-10T08:40:24.613Z,94576.08
2018-07-10T08:42:54.714Z,94572.00
2018-07-10T08:45:24.799Z,94574.53
2018-07-10T08:47:54.963Z,94575.65
2018-07-10T08:50:25.063Z,94569.77
2018-07-10T08:52:55.253Z,94566.56
2018-07-10T08:55:25.426Z,94563.62
2018-07-10T08:57:55.675Z,94571.11
2018-07-10T09:00:25.874Z,94562.51
2018-07-10T09:02:55.981Z,94566.17
2018-07-10T09:05:25.782Z,94567.75
2018-07-10T09:07:55.672Z,94569.46
2018-07-10T09:10:25.799Z,94561.16
2018-07-10T09:12:55.952Z,94562.44
2018-07-10T09:15:29.281Z,94562.56
2018-07-10T09:17:59.275Z,94558.67
2018-07-10T09:20:33.841Z,94560.20
2018-07-10T09:23:04.085Z,94564.16
2018-07-10T09:25:34.162Z,94560.40
2018-07-10T09:28:04.452Z,94569.63
2018-07-10T09:30:34.587Z,94567.30
2018-07-10T09:33:04.816Z,94570.74
2018-07-10T09:35:34.576Z,94564.16
2018-07-10T09:38:04.474Z,94559.99
2018-07-10T09:40:34.943Z,94558.83
2018-07-10T09:43:05.422Z,94557.13
2018-07-10T09:45:37.002Z,94558.23
2018-07-10T09:48:08.232Z,94545.41
2018-07-10T09:50:38.910Z,94558.50
2018-07-10T09:53:09.108Z,94544.52
2018-07-10T09:55:39.176Z,94549.92
2018-07-10T09:58:09.551Z,94549.36
2018-07-10T10:00:44.628Z,94547.58
2018-07-10T10:03:14.495Z,94550.17
2018-07-10T10:05:45.318Z,94542.73
2018-07-10T10:08:15.117Z,94543.25
2018-07-10T10:10:45.151Z,94545.53
2018-07-10T10:13:15.286Z,94551.34
2018-07-10T10:15:45.394Z,94547.42
2018-07-10T10:18:15.507Z,94559.39
2018-07-10T10:20:46.597Z,94553.98
2018-07-10T10:23:16.578Z,94551.27
2018-07-10T10:25:50.458Z,94546.27
2018-07-10T10:28:23.260Z,94555.89
2018-07-10T10:30:53.396Z,94551.94
2018-07-10T10:33:23.213Z,94539.31
2018-07-10T10:35:53.076Z,94541.94
2018-07-10T10:38:24.125Z,94545.60
2018-07-10T10:40:54.353Z,94548.03
2018-07-10T10:43:24.568Z,94549.11
2018-07-10T10:45:54.604Z,94554.91
2018-07-10T10:48:24.864Z,94550.06
2018-07-10T10:50:54.990Z,94549.14
2018-07-10T10:53:25.117Z,94546.11
2018-07-10T10:55:55.231Z,94551.55
2018-07-10T10:58:25.429Z,94541.44
2018-07-10T11:00:55.606Z,94545.77
2018-07-10T11:03:25.526Z,94548.81
2018-07-10T11:05:55.390Z,94546.94
2018-07-10T11:08:25.526Z,94536.08
2018-07-10T11:10:55.673Z,94533.00
2018-07-10T11:13:25.786Z,94537.77
2018-07-10T11:15:56.057Z,94538.91
2018-07-10T11:18:37.437Z,94528.44
2018-07-10T11:22:12.902Z,94526.60
2018-07-10T11:24:58.097Z,94515.45
2018-07-10T11:28:31.540Z,94514.05
2018-07-10T11:31:01.532Z,94516.00
2018-07-10T11:33:31.363Z,94512.73
2018-07-10T11:36:01.184Z,94509.52
2018-07-10T11:38:31.325Z,94511.88
2018-07-10T11:41:01.525Z,94507.41
2018-07-10T11:43:31.795Z,94509.05
2018-07-10T11:46:01.691Z,94511.19
2018-07-10T11:48:31.570Z,94512.30
2018-07-10T11:51:01.445Z,94508.84
2018-07-10T11:53:31.351Z,94513.67
2018-07-10T11:56:01.196Z,94513.70
2018-07-10T11:58:30.996Z,94513.70
2018-07-10T12:01:00.691Z,94512.85
2018-07-10T12:03:37.297Z,94510.61
2018-07-10T12:06:07.863Z,94519.47
2018-07-10T12:08:37.894Z,94538.09
2018-07-10T12:11:16.512Z,94518.89
2018-07-10T12:13:46.193Z,94529.02
2018-07-10T12:16:15.909Z,94528.09
2018-07-10T12:18:45.947Z,94523.55
2018-07-10T12:21:17.005Z,94523.08
2018-07-10T12:23:47.196Z,94528.13
2018-07-10T12:26:17.307Z,94525.15
2018-07-10T12:28:47.443Z,94529.89
2018-07-10T12:31:17.421Z,94525.67
2018-07-10T12:33:47.212Z,94525.31
2018-07-10T12:36:16.787Z,94535.80
2018-07-10T12:38:46.480Z,94534.34
2018-07-10T12:41:16.371Z,94535.66
2018-07-10T12:43:46.198Z,94537.72
2018-07-10T12:46:16.144Z,94532.78
2018-07-10T12:48:46.310Z,94534.72
2018-07-10T12:51:16.302Z,94536.37
2018-07-10T12:53:46.198Z,94535.16
2018-07-10T12:56:15.964Z,94541.59
2018-07-10T12:58:45.570Z,94527.55
2018-07-10T13:01:15.595Z,94520.70
2018-07-10T13:03:45.282Z,94527.12
2018-07-10T13:06:15.464Z,94521.56
2018-07-10T13:08:45.123Z,94524.57
2018-07-10T13:11:14.825Z,94514.63
2018-07-10T13:13:44.759Z,94513.39
2018-07-10T13:16:14.746Z,94515.67
2018-07-10T13:18:44.408Z,94509.73
2018-07-10T13:21:14.551Z,94507.61
2018-07-10T13:23:44.663Z,94505.95
2018-07-10T13:26:14.712Z,94520.64
2018-07-10T13:28:44.550Z,94503.59
2018-07-10T13:31:14.229Z,94517.93
2018-07-10T13:33:43.994Z,94507.27
2018-07-10T13:36:14.135Z,94514.06
2018-07-10T13:38:43.988Z,94517.09
2018-07-10T13:41:13.737Z,94524.62
2018-07-10T13:43:43.750Z,94520.61
2018-07-10T13:46:13.736Z,94503.60
2018-07-10T13:48:43.713Z,94539.47
2018-07-10T13:51:13.567Z,94518.18
2018-07-10T13:53:43.279Z,94525.58
2018-07-10T13:56:13.387Z,94522.59
2018-07-10T13:58:43.214Z,94530.61
2018-07-10T14:01:13.186Z,94533.05
2018-07-10T14:03:42.940Z,94527.62
2018-07-10T14:06:12.998Z,94518.56
2018-07-10T14:08:42.944Z,94524.33
2018-07-10T14:11:12.634Z,94524.02
2018-07-10T14:13:42.725Z,94534.40
2018-07-10T14:16:12.795Z,94532.77
2018-07-10T14:18:42.695Z,94528.63
2018-07-10T14:21:12.881Z,94523.70
2018-07-10T14:23:42.673Z,94532.09
2018-07-10T14:26:12.495Z,94522.04
2018-07-10T14:28:42.162Z,94515.41
2018-07-10T14:31:11.834Z,94521.91
2018-07-10T14:33:41.623Z,94523.94
2018-07-10T14:36:11.807Z,94511.45
2018-07-10T14:38:42.895Z,94517.20
2018-07-10T14:41:14.228Z,94506.35
2018-07-10T14:43:46.175Z,94508.13
2018-07-10T14:46:17.791Z,94524.61
2018-07-10T14:48:53.030Z,94523.65
2018-07-10T14:51:26.052Z,94522.53
2018-07-10T14:53:56.108Z,94526.44
2018-07-10T14:56:26.135Z,94524.39
2018-07-10T14:58:57.275Z,94510.80
2018-07-10T15:01:27.094Z,94516.71
2018-07-10T15:03:57.589Z,94516.66
2018-07-10T15:06:27.871Z,94511.41
2018-07-10T15:08:57.808Z,94512.34
2018-07-10T15:11:27.991Z,94520.58
2018-07-10T15:14:03.354Z,94510.56
2018-07-10T15:16:38.312Z,94512.03
2018-07-10T15:19:08.340Z,94516.43
2018-07-10T15:21:38.571Z,94510.75
2018-07-10T15:24:09.526Z,94506.35
2018-07-10T15:26:39.383Z,94517.73
2018-07-10T15:29:09.131Z,94515.75
2018-07-10T15:31:39.050Z,94527.80
2018-07-10T15:34:08.954Z,94520.72
2018-07-10T15:36:39.023Z,94526.53
2018-07-10T15:39:08.779Z,94528.09
2018-07-10T15:41:38.812Z,94533.61
2018-07-10T15:44:08.442Z,94528.28
2018-07-10T15:46:38.048Z,94535.46
2018-07-10T15:49:07.727Z,94543.73
2018-07-10T15:51:37.334Z,94548.83
2018-07-10T15:54:07.357Z,94545.34
2018-07-10T15:56:37.056Z,94546.06
2018-07-10T15:59:06.809Z,94546.81
2018-07-10T16:01:37.015Z,94544.28
2018-07-10T16:04:06.994Z,94536.30
2018-07-10T16:06:37.623Z,94543.54
2018-07-10T16:09:14.187Z,94551.83
2018-07-10T16:11:44.174Z,94549.98
2018-07-10T16:14:13.818Z,94553.97
2018-07-10T16:16:43.794Z,94552.02
2018-07-10T16:19:17.262Z,94551.85
2018-07-10T16:21:56.585Z,94555.39
2018-07-10T16:24:26.216Z,94552.20
2018-07-10T16:26:56.079Z,94560.37
2018-07-10T16:29:26.243Z,94558.56
2018-07-10T16:32:00.031Z,94563.02
2018-07-10T16:34:29.975Z,94550.53
2018-07-10T16:37:00.065Z,94561.27
2018-07-10T16:39:29.950Z,94553.69
2018-07-10T16:42:04.841Z,94557.30
2018-07-10T16:44:36.003Z,94556.44
2018-07-10T16:47:10.811Z,94558.48
2018-07-10T16:49:47.389Z,94558.84
2018-07-10T16:53:22.977Z,94565.97
2018-07-10T16:55:52.693Z,94570.66
2018-07-10T16:58:22.607Z,94571.01
2018-07-10T17:00:52.731Z,94567.91
2018-07-10T17:03:22.503Z,94576.30
2018-07-10T17:05:52.492Z,94565.87
2018-07-10T17:08:22.458Z,94569.94
2018-07-10T17:10:52.679Z,94571.28
2018-07-10T17:13:22.863Z,94571.93
2018-07-10T17:15:52.842Z,94578.02
2018-07-10T17:18:22.919Z,94579.48
2018-07-10T17:20:52.785Z,94578.39
2018-07-10T17:23:22.518Z,94581.53
2018-07-10T17:25:52.355Z,94580.72
2018-07-10T17:28:22.178Z,94582.59
2018-07-10T17:30:52.122Z,94580.09
2018-07-10T17:33:22.486Z,94586.27
2018-07-10T17:35:52.380Z,94585.08
2018-07-10T17:38:22.263Z,94528.69
2018-07-10T17:40:52.457Z,94582.77
2018-07-10T17:43:23.083Z,94584.61
2018-07-10T17:45:53.463Z,94592.28
2018-07-10T17:48:23.981Z,94593.75
2018-07-10T17:50:53.838Z,94584.61
2018-07-10T17:53:23.924Z,94582.34
2018-07-10T17:55:53.655Z,94585.83
2018-07-10T17:58:23.754Z,94590.98
2018-07-10T18:00:53.728Z,94593.81
2018-07-10T18:03:23.395Z,94589.55
2018-07-10T18:05:53.321Z,94588.89
2018-07-10T18:08:23.412Z,94591.01
2018-07-10T18:10:53.478Z,94594.14
2018-07-10T18:13:23.351Z,94595.16
2018-07-10T18:15:53.231Z,94597.76
2018-07-10T18:18:23.270Z,94601.29
2018-07-10T18:20:53.243Z,94603.27
2018-07-10T18:23:23.125Z,94609.77
2018-07-10T18:25:52.824Z,94599.12
2018-07-10T18:28:22.377Z,94608.62
2018-07-10T18:30:52.216Z,94606.92
2018-07-10T18:33:22.178Z,94617.89
2018-07-10T18:35:52.246Z,94616.73
2018-07-10T18:38:22.011Z,94623.46
2018-07-10T18:40:52.026Z,94632.88
2018-07-10T18:43:21.794Z,94627.94
2018-07-10T18:45:51.865Z,94629.91
2018-07-10T18:48:25.641Z,94643.40
2018-07-10T18:50:56.647Z,94635.19
2018-07-10T18:53:27.399Z,94639.57
2018-07-10T18:55:57.131Z,94636.17
2018-07-10T18:58:30.327Z,94634.34
2018-07-10T19:01:52.732Z,94634.50
2018-07-10T19:04:28.830Z,94644.73
2018-07-10T19:06:58.783Z,94645.34
2018-07-10T19:09:33.864Z,94647.65
2018-07-10T19:12:05.647Z,94648.66
2018-07-10T19:14:35.647Z,94653.99
2018-07-10T19:17:09.666Z,94646.38
2018-07-10T19:19:39.403Z,94653.18
2018-07-10T19:22:11.942Z,94643.42
2018-07-10T19:24:42.922Z,94654.41
2018-07-10T19:27:24.496Z,94657.55
2018-07-10T19:29:57.366Z,94658.14
2018-07-10T19:32:27.461Z,94659.69
2018-07-10T19:35:00.797Z,94655.19
2018-07-10T19:37:32.548Z,94656.18
2018-07-10T19:40:02.700Z,94661.76
2018-07-10T19:42:33.946Z,94655.77
2018-07-10T19:45:05.179Z,94658.84
2018-07-10T19:47:35.357Z,94663.61
2018-07-10T19:50:13.591Z,94654.98
2018-07-10T19:52:45.967Z,94658.80
2018-07-10T19:55:15.851Z,94660.49
2018-07-10T19:58:07.276Z,94661.66
2018-07-10T20:00:43.652Z,94670.36
2018-07-10T20:03:23.618Z,94670.66
2018-07-10T20:05:53.438Z,94672.53
2018-07-10T20:08:23.282Z,94665.20
2018-07-10T20:10:58.349Z,94667.23
2018-07-10T20:13:58.534Z,94662.62
2018-07-10T20:16:51.706Z,94669.88
2018-07-10T20:19:34.076Z,94676.95
2018-07-10T20:22:10.517Z,94679.00
2018-07-10T20:24:44.435Z,94672.28
2018-07-10T20:27:27.058Z,94668.67
2018-07-10T20:30:09.023Z,94675.52
2018-07-10T20:32:46.480Z,94674.74
2018-07-10T20:35:22.085Z,94676.31
2018-07-10T20:37:51.746Z,94681.08
2018-07-10T20:40:31.463Z,94686.92
2018-07-10T20:43:07.435Z,94680.87
2018-07-10T20:45:46.540Z,94670.39
2018-07-10T20:48:37.177Z,94676.04
2018-07-10T20:51:08.531Z,94679.48
2018-07-10T20:53:45.435Z,94673.63
2018-07-10T20:56:20.767Z,94662.02
2018-07-10T20:59:11.870Z,94672.69
2018-07-10T21:01:42.214Z,94685.28
2018-07-10T21:04:35.674Z,94681.60
2018-07-10T21:07:12.132Z,94682.06
2018-07-10T21:09:58.842Z,94680.40
2018-07-10T21:12:34.699Z,94677.53
2018-07-10T21:15:07.696Z,94689.19
2018-07-10T21:17:45.669Z,94692.28
2018-07-10T21:20:29.235Z,94685.69
2018-07-10T21:23:21.411Z,94691.82
2018-07-10T21:25:56.981Z,94695.98
2018-07-10T21:29:07.147Z,94689.03
2018-07-10T21:31:44.778Z,94692.57
2018-07-10T21:34:19.439Z,94684.92
2018-07-10T21:39:05.706Z,94689.75
2018-07-10T21:41:46.571Z,94686.69
2018-07-10T21:46:32.082Z,94681.20
2018-07-10T21:49:12.721Z,94676.69
2018-07-10T21:51:48.302Z,94681.92
2018-07-10T21:54:18.167Z,94678.98
2018-07-10T21:56:47.983Z,94678.14
2018-07-10T21:59:19.256Z,94676.04
2018-07-10T22:01:55.615Z,94685.56
2018-07-10T22:04:28.903Z,94685.30
2018-07-10T22:06:59.939Z,94687.41
2018-07-10T22:09:30.980Z,94681.13
2018-07-10T22:12:01.815Z,94683.35
2018-07-10T22:14:31.867Z,94680.37
2018-07-10T22:17:02.884Z,94678.58
2018-07-10T22:19:35.917Z,94681.73
2018-07-10T22:22:05.741Z,94679.97
2018-07-10T22:24:35.804Z,94675.73
2018-07-10T22:27:05.824Z,94677.57
2018-07-10T22:29:40.996Z,94679.94
2018-07-10T22:32:15.845Z,94674.70
2018-07-10T22:34:45.905Z,94678.09
2018-07-10T22:37:15.903Z,94680.45
2018-07-10T22:39:45.790Z,94664.36
2018-07-10T22:42:15.534Z,94670.98
2018-07-10T22:44:50.206Z,94672.82
2018-07-10T22:47:24.011Z,94662.64
2018-07-10T22:49:55.319Z,94658.16
2018-07-10T22:52:25.461Z,94665.87
2018-07-10T22:54:55.151Z,94661.36
2018-07-10T22:57:25.221Z,94662.25
2018-07-10T22:59:54.996Z,94663.10
2018-07-10T23:02:25.096Z,94658.36
2018-07-10T23:04:54.733Z,94661.17
2018-07-10T23:07:24.235Z,94660.64
2018-07-10T23:09:53.776Z,94662.22
2018-07-10T23:12:23.595Z,94661.69
2018-07-10T23:14:53.383Z,94665.14
2018-07-10T23:17:22.743Z,94665.67
2018-07-10T23:19:52.236Z,94672.94
2018-07-10T23:22:26.070Z,94664.93
2018-07-10T23:24:55.792Z,94667.69
2018-07-10T23:27:25.429Z,94671.34
2018-07-10T23:29:55.174Z,94679.28
2018-07-10T23:32:24.749Z,94674.28
2018-07-10T23:34:54.408Z,94678.80
2018-07-10T23:37:24.166Z,94677.48
2018-07-10T23:39:57.845Z,94675.46
2018-07-10T23:42:31.706Z,94673.00
2018-07-10T23:45:35.360Z,94673.80
2018-07-10T23:48:06.654Z,94676.25
2018-07-10T23:50:37.290Z,94671.77
2018-07-10T23:53:17.951Z,94679.11
2018-07-10T23:55:47.806Z,94684.68
2018-07-10T23:58:17.644Z,94679.14
